createdAt,value
2018-08-16T00:00:34.242Z,1019.39
2018-08-16T00:01:34.130Z,1019.37
2018-08-16T00:02:34.060Z,1019.38
2018-08-16T00:03:34.033Z,1019.39
2018-08-16T00:04:34.142Z,1019.37
2018-08-16T00:05:33.974Z,1019.35
2018-08-16T00:06:34.065Z,1019.38
2018-08-16T00:07:34.016Z,1019.37
2018-08-16T00:08:34.471Z,1019.34
2018-08-16T00:09:34.182Z,1019.36
2018-08-16T00:10:34.016Z,1019.36
2018-08-16T00:11:34.046Z,1019.36
2018-08-16T00:12:34.201Z,1019.32
2018-08-16T00:13:34.039Z,1019.34
2018-08-16T00:14:34.243Z,1019.34
2018-08-16T00:15:34.052Z,1019.35
2018-08-16T00:16:33.928Z,1019.35
2018-08-16T00:17:34.096Z,1019.31
2018-08-16T00:18:34.006Z,1019.32
2018-08-16T00:19:34.137Z,1019.33
2018-08-16T00:20:34.133Z,1019.31
2018-08-16T00:21:34.001Z,1019.3
2018-08-16T00:22:34.158Z,1019.31
2018-08-16T00:23:34.277Z,1019.25
2018-08-16T00:24:34.178Z,1019.27
2018-08-16T00:25:34.055Z,1019.29
2018-08-16T00:26:34.048Z,1019.26
2018-08-16T00:27:34.133Z,1019.24
2018-08-16T00:28:34.009Z,1019.27
2018-08-16T00:29:34.201Z,1019.22
2018-08-16T00:30:34.160Z,1019.24
2018-08-16T00:31:34.177Z,1019.24
2018-08-16T00:32:34.165Z,1019.19
2018-08-16T00:33:34.171Z,1019.18
2018-08-16T00:34:33.911Z,1019.17
2018-08-16T00:35:33.922Z,1019.15
2018-08-16T00:36:34.133Z,1019.13
2018-08-16T00:37:34.200Z,1019.14
2018-08-16T00:38:34.174Z,1019.14
2018-08-16T00:39:34.037Z,1019.14
2018-08-16T00:40:33.996Z,1019.2
2018-08-16T00:41:34.115Z,1019.18
2018-08-16T00:42:34.053Z,1019.18
2018-08-16T00:43:33.890Z,1019.16
2018-08-16T00:44:34.033Z,1019.18
2018-08-16T00:45:34.051Z,1019.17
2018-08-16T00:46:34.182Z,1019.14
2018-08-16T00:47:34.034Z,1019.16
2018-08-16T00:48:34.028Z,1019.14
2018-08-16T00:49:34.243Z,1019.11
2018-08-16T00:50:34.051Z,1019.13
2018-08-16T00:51:33.979Z,1019.12
2018-08-16T00:52:33.930Z,1019.06
2018-08-16T00:53:34.190Z,1019.07
2018-08-16T00:54:34.134Z,1019.09
2018-08-16T00:55:34.007Z,1019.08
2018-08-16T00:56:34.225Z,1019.1
2018-08-16T00:57:34.053Z,1019.09
2018-08-16T00:58:34.006Z,1019.09
2018-08-16T00:59:34.040Z,1019.07
2018-08-16T01:00:34.043Z,1019.07
2018-08-16T01:01:33.867Z,1019.06
2018-08-16T01:02:34.013Z,1019.03
2018-08-16T01:03:34.247Z,1018.99
2018-08-16T01:04:33.956Z,1019.01
2018-08-16T01:05:33.981Z,1019.01
2018-08-16T01:06:34.080Z,1019.06
2018-08-16T01:07:34.090Z,1019.03
2018-08-16T01:08:33.958Z,1018.99
2018-08-16T01:09:34.125Z,1018.97
2018-08-16T01:10:33.825Z,1019.02
2018-08-16T01:11:33.891Z,1018.97
2018-08-16T01:12:34.180Z,1018.95
2018-08-16T01:13:33.961Z,1018.96
2018-08-16T01:14:34.116Z,1018.95
2018-08-16T01:15:34.253Z,1018.91
2018-08-16T01:16:34.084Z,1018.92
2018-08-16T01:17:34.131Z,1018.93
2018-08-16T01:18:34.220Z,1018.97
2018-08-16T01:19:33.935Z,1018.96
2018-08-16T01:20:34.085Z,1018.95
2018-08-16T01:21:34.132Z,1018.93
2018-08-16T01:22:34.143Z,1018.95
2018-08-16T01:23:33.953Z,1018.97
2018-08-16T01:24:34.181Z,1018.94
2018-08-16T01:25:34.142Z,1018.94
2018-08-16T01:26:34.150Z,1018.95
2018-08-16T01:27:34.336Z,1018.93
2018-08-16T01:28:34.098Z,1018.89
2018-08-16T01:29:34.022Z,1018.92
2018-08-16T01:30:34.287Z,1018.91
2018-08-16T01:31:34.037Z,1018.88
2018-08-16T01:32:34.030Z,1018.89
2018-08-16T01:33:34.159Z,1018.9
2018-08-16T01:34:33.973Z,1018.88
2018-08-16T01:35:34.638Z,1018.87
2018-08-16T01:36:34.092Z,1018.87
2018-08-16T01:37:33.958Z,1018.86
2018-08-16T01:38:33.912Z,1018.85
2018-08-16T01:39:34.156Z,1018.84
2018-08-16T01:40:34.148Z,1018.84
2018-08-16T01:41:34.073Z,1018.86
2018-08-16T01:42:34.106Z,1018.85
2018-08-16T01:43:34.772Z,1018.84
2018-08-16T01:44:34.045Z,1018.81
2018-08-16T01:45:34.166Z,1018.84
2018-08-16T01:46:34.011Z,1018.84
2018-08-16T01:47:34.187Z,1018.81
2018-08-16T01:48:33.982Z,1018.82
2018-08-16T01:49:34.401Z,1018.82
2018-08-16T01:50:34.017Z,1018.85
2018-08-16T01:51:34.179Z,1018.8
2018-08-16T01:52:34.328Z,1018.79
2018-08-16T01:53:34.157Z,1018.84
2018-08-16T01:54:34.035Z,1018.81
2018-08-16T01:55:33.923Z,1018.78
2018-08-16T01:56:34.124Z,1018.8
2018-08-16T01:57:34.028Z,1018.78
2018-08-16T01:58:34.397Z,1018.81
2018-08-16T01:59:34.046Z,1018.81
2018-08-16T02:00:33.968Z,1018.81
2018-08-16T02:01:33.915Z,1018.78
2018-08-16T02:02:34.060Z,1018.78
2018-08-16T02:03:34.124Z,1018.77
2018-08-16T02:04:34.014Z,1018.76
2018-08-16T02:05:34.079Z,1018.78
2018-08-16T02:06:34.151Z,1018.78
2018-08-16T02:07:34.260Z,1018.78
2018-08-16T02:08:34.261Z,1018.75
2018-08-16T02:09:33.954Z,1018.82
2018-08-16T02:10:34.223Z,1018.81
2018-08-16T02:11:34.371Z,1018.77
2018-08-16T02:12:34.267Z,1018.78
2018-08-16T02:13:34.048Z,1018.75
2018-08-16T02:14:34.010Z,1018.79
2018-08-16T02:15:34.015Z,1018.76
2018-08-16T02:16:34.015Z,1018.76
2018-08-16T02:17:34.069Z,1018.74
2018-08-16T02:18:34.121Z,1018.73
2018-08-16T02:19:34.117Z,1018.75
2018-08-16T02:20:34.044Z,1018.76
2018-08-16T02:21:33.979Z,1018.71
2018-08-16T02:22:33.860Z,1018.75
2018-08-16T02:23:34.014Z,1018.76
2018-08-16T02:24:34.277Z,1018.77
2018-08-16T02:25:34.312Z,1018.74
2018-08-16T02:26:34.156Z,1018.76
2018-08-16T02:27:33.937Z,1018.72
2018-08-16T02:28:34.377Z,1018.69
2018-08-16T02:29:34.164Z,1018.71
2018-08-16T02:30:34.118Z,1018.69
2018-08-16T02:31:33.878Z,1018.68
2018-08-16T02:32:34.046Z,1018.7
2018-08-16T02:33:34.393Z,1018.72
2018-08-16T02:34:34.151Z,1018.71
2018-08-16T02:35:34.244Z,1018.68
2018-08-16T02:36:34.130Z,1018.71
2018-08-16T02:37:34.029Z,1018.7
2018-08-16T02:38:34.246Z,1018.74
2018-08-16T02:39:34.042Z,1018.72
2018-08-16T02:40:33.897Z,1018.65
2018-08-16T02:41:34.316Z,1018.69
2018-08-16T02:42:34.244Z,1018.66
2018-08-16T02:43:34.172Z,1018.68
2018-08-16T02:44:34.084Z,1018.69
2018-08-16T02:45:34.059Z,1018.64
2018-08-16T02:46:34.017Z,1018.63
2018-08-16T02:47:33.975Z,1018.63
2018-08-16T02:48:34.169Z,1018.61
2018-08-16T02:49:34.010Z,1018.64
2018-08-16T02:50:33.993Z,1018.63
2018-08-16T02:51:34.067Z,1018.6
2018-08-16T02:52:34.003Z,1018.61
2018-08-16T02:53:33.974Z,1018.58
2018-08-16T02:54:34.082Z,1018.57
2018-08-16T02:55:34.490Z,1018.61
2018-08-16T02:56:34.012Z,1018.61
2018-08-16T02:57:34.130Z,1018.61
2018-08-16T02:58:33.958Z,1018.54
2018-08-16T02:59:34.222Z,1018.55
2018-08-16T03:00:34.110Z,1018.58
2018-08-16T03:01:34.054Z,1018.55
2018-08-16T03:02:34.358Z,1018.57
2018-08-16T03:03:34.545Z,1018.58
2018-08-16T03:04:34.019Z,1018.61
2018-08-16T03:05:34.112Z,1018.6
2018-08-16T03:06:34.343Z,1018.56
2018-08-16T03:07:34.141Z,1018.56
2018-08-16T03:08:34.184Z,1018.57
2018-08-16T03:09:34.200Z,1018.53
2018-08-16T03:10:34.068Z,1018.53
2018-08-16T03:11:33.990Z,1018.54
2018-08-16T03:12:33.924Z,1018.52
2018-08-16T03:13:34.143Z,1018.52
2018-08-16T03:14:34.239Z,1018.48
2018-08-16T03:15:33.975Z,1018.46
2018-08-16T03:16:33.931Z,1018.48
2018-08-16T03:17:33.966Z,1018.48
2018-08-16T03:18:34.281Z,1018.45
2018-08-16T03:19:34.036Z,1018.52
2018-08-16T03:20:34.185Z,1018.46
2018-08-16T03:21:34.174Z,1018.48
2018-08-16T03:22:33.839Z,1018.48
2018-08-16T03:23:34.433Z,1018.48
2018-08-16T03:24:34.082Z,1018.47
2018-08-16T03:25:33.998Z,1018.45
2018-08-16T03:26:33.926Z,1018.43
2018-08-16T03:27:34.143Z,1018.45
2018-08-16T03:28:34.290Z,1018.48
2018-08-16T03:29:33.990Z,1018.45
2018-08-16T03:30:33.996Z,1018.45
2018-08-16T03:31:34.232Z,1018.45
2018-08-16T03:32:34.346Z,1018.43
2018-08-16T03:33:34.090Z,1018.46
2018-08-16T03:34:33.905Z,1018.46
2018-08-16T03:35:34.042Z,1018.41
2018-08-16T03:36:33.955Z,1018.44
2018-08-16T03:37:34.085Z,1018.42
2018-08-16T03:38:34.026Z,1018.43
2018-08-16T03:39:34.042Z,1018.41
2018-08-16T03:40:33.912Z,1018.43
2018-08-16T03:41:33.961Z,1018.4
2018-08-16T03:42:34.036Z,1018.41
2018-08-16T03:43:33.911Z,1018.37
2018-08-16T03:44:34.052Z,1018.39
2018-08-16T03:45:33.997Z,1018.38
2018-08-16T03:46:34.254Z,1018.39
2018-08-16T03:47:34.010Z,1018.36
2018-08-16T03:48:34.190Z,1018.33
2018-08-16T03:49:34.028Z,1018.38
2018-08-16T03:50:33.970Z,1018.34
2018-08-16T03:51:34.072Z,1018.32
2018-08-16T03:52:33.880Z,1018.3
2018-08-16T03:53:34.049Z,1018.33
2018-08-16T03:54:33.884Z,1018.29
2018-08-16T03:55:33.962Z,1018.3
2018-08-16T03:56:33.993Z,1018.3
2018-08-16T03:57:34.060Z,1018.3
2018-08-16T03:58:34.207Z,1018.32
2018-08-16T03:59:34.214Z,1018.31
2018-08-16T04:00:34.052Z,1018.31
2018-08-16T04:01:33.927Z,1018.33
2018-08-16T04:02:34.157Z,1018.3
2018-08-16T04:03:33.888Z,1018.32
2018-08-16T04:04:33.976Z,1018.36
2018-08-16T04:05:34.280Z,1018.37
2018-08-16T04:06:34.064Z,1018.34
2018-08-16T04:07:33.923Z,1018.35
2018-08-16T04:08:34.059Z,1018.4
2018-08-16T04:09:34.241Z,1018.35
2018-08-16T04:10:34.030Z,1018.36
2018-08-16T04:11:34.114Z,1018.4
2018-08-16T04:12:34.150Z,1018.36
2018-08-16T04:13:34.014Z,1018.35
2018-08-16T04:14:34.158Z,1018.35
2018-08-16T04:15:34.050Z,1018.36
2018-08-16T04:16:34.094Z,1018.37
2018-08-16T04:17:34.150Z,1018.35
2018-08-16T04:18:34.006Z,1018.39
2018-08-16T04:19:33.999Z,1018.33
2018-08-16T04:20:33.999Z,1018.35
2018-08-16T04:21:33.840Z,1018.34
2018-08-16T04:22:33.978Z,1018.33
2018-08-16T04:23:34.357Z,1018.34
2018-08-16T04:24:34.125Z,1018.29
2018-08-16T04:25:34.032Z,1018.37
2018-08-16T04:26:34.062Z,1018.32
2018-08-16T04:27:34.119Z,1018.32
2018-08-16T04:28:33.907Z,1018.33
2018-08-16T04:29:34.056Z,1018.3
2018-08-16T04:30:33.887Z,1018.32
2018-08-16T04:31:34.158Z,1018.32
2018-08-16T04:32:34.059Z,1018.34
2018-08-16T04:33:33.874Z,1018.3
2018-08-16T04:34:34.035Z,1018.28
2018-08-16T04:35:34.312Z,1018.31
2018-08-16T04:36:33.973Z,1018.31
2018-08-16T04:37:33.975Z,1018.31
2018-08-16T04:38:33.907Z,1018.32
2018-08-16T04:39:33.924Z,1018.35
2018-08-16T04:40:34.007Z,1018.34
2018-08-16T04:41:34.317Z,1018.39
2018-08-16T04:42:33.847Z,1018.37
2018-08-16T04:43:34.059Z,1018.42
2018-08-16T04:44:33.998Z,1018.43
2018-08-16T04:45:34.215Z,1018.44
2018-08-16T04:46:34.042Z,1018.45
2018-08-16T04:47:34.105Z,1018.42
2018-08-16T04:48:34.103Z,1018.44
2018-08-16T04:49:33.898Z,1018.39
2018-08-16T04:50:33.892Z,1018.41
2018-08-16T04:51:34.005Z,1018.4
2018-08-16T04:52:33.969Z,1018.4
2018-08-16T04:53:33.926Z,1018.37
2018-08-16T04:54:34.025Z,1018.39
2018-08-16T04:55:34.072Z,1018.37
2018-08-16T04:56:34.008Z,1018.35
2018-08-16T04:57:33.810Z,1018.34
2018-08-16T04:58:34.091Z,1018.36
2018-08-16T04:59:34.014Z,1018.35
2018-08-16T05:00:33.920Z,1018.32
2018-08-16T05:01:34.011Z,1018.32
2018-08-16T05:02:34.105Z,1018.32
2018-08-16T05:03:33.941Z,1018.31
2018-08-16T05:04:33.921Z,1018.34
2018-08-16T05:05:34.112Z,1018.37
2018-08-16T05:06:33.888Z,1018.35
2018-08-16T05:07:34.094Z,1018.36
2018-08-16T05:08:33.911Z,1018.38
2018-08-16T05:09:34.083Z,1018.38
2018-08-16T05:10:33.923Z,1018.36
2018-08-16T05:11:34.312Z,1018.38
2018-08-16T05:12:34.103Z,1018.38
2018-08-16T05:13:33.937Z,1018.36
2018-08-16T05:14:33.955Z,1018.37
2018-08-16T05:15:33.938Z,1018.37
2018-08-16T05:16:34.265Z,1018.37
2018-08-16T05:17:33.991Z,1018.38
2018-08-16T05:18:34.069Z,1018.39
2018-08-16T05:19:34.010Z,1018.4
2018-08-16T05:20:33.993Z,1018.41
2018-08-16T05:21:33.961Z,1018.39
2018-08-16T05:22:33.901Z,1018.37
2018-08-16T05:23:34.135Z,1018.41
2018-08-16T05:24:33.892Z,1018.43
2018-08-16T05:25:34.055Z,1018.46
2018-08-16T05:26:33.897Z,1018.49
2018-08-16T05:27:34.075Z,1018.47
2018-08-16T05:28:34.039Z,1018.46
2018-08-16T05:29:34.077Z,1018.48
2018-08-16T05:30:33.960Z,1018.46
2018-08-16T05:31:34.071Z,1018.51
2018-08-16T05:32:33.931Z,1018.5
2018-08-16T05:33:33.810Z,1018.48
2018-08-16T05:34:34.061Z,1018.43
2018-08-16T05:35:33.875Z,1018.46
2018-08-16T05:36:33.972Z,1018.48
2018-08-16T05:37:34.112Z,1018.43
2018-08-16T05:38:33.972Z,1018.43
2018-08-16T05:39:34.069Z,1018.41
2018-08-16T05:40:34.122Z,1018.47
2018-08-16T05:41:34.064Z,1018.4
2018-08-16T05:42:33.948Z,1018.4
2018-08-16T05:43:34.671Z,1018.42
2018-08-16T05:44:34.180Z,1018.46
2018-08-16T05:45:34.084Z,1018.44
2018-08-16T05:46:34.342Z,1018.43
2018-08-16T05:47:34.017Z,1018.47
2018-08-16T05:48:33.948Z,1018.42
2018-08-16T05:49:33.827Z,1018.47
2018-08-16T05:50:34.211Z,1018.45
2018-08-16T05:51:33.898Z,1018.45
2018-08-16T05:52:34.083Z,1018.45
2018-08-16T05:53:33.965Z,1018.43
2018-08-16T05:54:33.888Z,1018.41
2018-08-16T05:55:34.035Z,1018.47
2018-08-16T05:56:33.941Z,1018.46
2018-08-16T05:57:34.041Z,1018.44
2018-08-16T05:58:34.123Z,1018.42
2018-08-16T05:59:34.290Z,1018.44
2018-08-16T06:00:33.839Z,1018.48
2018-08-16T06:01:33.919Z,1018.44
2018-08-16T06:02:33.972Z,1018.44
2018-08-16T06:03:34.139Z,1018.44
2018-08-16T06:04:34.144Z,1018.4
2018-08-16T06:05:33.958Z,1018.43
2018-08-16T06:06:34.112Z,1018.48
2018-08-16T06:07:34.296Z,1018.4
2018-08-16T06:08:33.992Z,1018.48
2018-08-16T06:09:33.856Z,1018.47
2018-08-16T06:10:33.873Z,1018.43
2018-08-16T06:11:33.994Z,1018.4
2018-08-16T06:12:33.991Z,1018.42
2018-08-16T06:13:34.141Z,1018.41
2018-08-16T06:14:33.861Z,1018.36
2018-08-16T06:15:34.557Z,1018.38
2018-08-16T06:16:33.895Z,1018.36
2018-08-16T06:17:34.110Z,1018.32
2018-08-16T06:18:33.952Z,1018.34
2018-08-16T06:19:34.003Z,1018.33
2018-08-16T06:20:33.844Z,1018.31
2018-08-16T06:21:34.106Z,1018.34
2018-08-16T06:22:33.979Z,1018.3
2018-08-16T06:23:34.122Z,1018.35
2018-08-16T06:24:33.942Z,1018.27
2018-08-16T06:25:34.130Z,1018.32
2018-08-16T06:26:33.926Z,1018.25
2018-08-16T06:27:34.035Z,1018.26
2018-08-16T06:28:34.099Z,1018.25
2018-08-16T06:29:33.815Z,1018.22
2018-08-16T06:30:33.892Z,1018.26
2018-08-16T06:31:34.116Z,1018.24
2018-08-16T06:32:34.168Z,1018.24
2018-08-16T06:33:34.030Z,1018.25
2018-08-16T06:34:34.211Z,1018.23
2018-08-16T06:35:34.263Z,1018.2
2018-08-16T06:36:34.143Z,1018.21
2018-08-16T06:37:33.936Z,1018.21
2018-08-16T06:38:33.828Z,1018.25
2018-08-16T06:39:33.954Z,1018.18
2018-08-16T06:40:34.005Z,1018.2
2018-08-16T06:41:34.163Z,1018.23
2018-08-16T06:42:34.031Z,1018.18
2018-08-16T06:43:34.036Z,1018.18
2018-08-16T06:44:34.072Z,1018.17
2018-08-16T06:45:34.088Z,1018.17
2018-08-16T06:46:34.229Z,1018.17
2018-08-16T06:47:34.269Z,1018.12
2018-08-16T06:48:34.216Z,1018.15
2018-08-16T06:49:34.096Z,1018.14
2018-08-16T06:50:33.922Z,1018.15
2018-08-16T06:51:33.922Z,1018.12
2018-08-16T06:52:34.464Z,1018.12
2018-08-16T06:53:34.140Z,1018.11
2018-08-16T06:54:34.076Z,1018.11
2018-08-16T06:55:33.971Z,1018.15
2018-08-16T06:56:33.885Z,1018.13
2018-08-16T06:57:34.217Z,1018.1
2018-08-16T06:58:33.910Z,1018.06
2018-08-16T06:59:34.199Z,1018.04
2018-08-16T07:00:34.088Z,1018.04
2018-08-16T07:01:33.873Z,1018.04
2018-08-16T07:02:33.949Z,1017.99
2018-08-16T07:03:34.058Z,1017.97
2018-08-16T07:04:33.904Z,1018.01
2018-08-16T07:05:33.945Z,1017.96
2018-08-16T07:06:34.104Z,1018.01
2018-08-16T07:07:34.019Z,1018.02
2018-08-16T07:08:34.104Z,1018
2018-08-16T07:09:34.012Z,1017.97
2018-08-16T07:10:34.066Z,1017.97
2018-08-16T07:11:34.173Z,1018
2018-08-16T07:12:34.394Z,1017.99
2018-08-16T07:13:34.095Z,1017.99
2018-08-16T07:14:33.888Z,1017.97
2018-08-16T07:15:34.198Z,1017.95
2018-08-16T07:16:34.126Z,1017.98
2018-08-16T07:17:34.104Z,1017.94
2018-08-16T07:18:34.193Z,1017.94
2018-08-16T07:19:33.947Z,1017.87
2018-08-16T07:20:34.118Z,1017.92
2018-08-16T07:21:33.923Z,1017.94
2018-08-16T07:22:34.164Z,1017.9
2018-08-16T07:23:34.000Z,1017.89
2018-08-16T07:24:34.308Z,1017.92
2018-08-16T07:25:34.081Z,1017.87
2018-08-16T07:26:33.968Z,1017.85
2018-08-16T07:27:33.951Z,1017.85
2018-08-16T07:28:33.927Z,1017.82
2018-08-16T07:29:33.864Z,1017.81
2018-08-16T07:30:33.834Z,1017.81
2018-08-16T07:31:34.004Z,1017.8
2018-08-16T07:32:33.878Z,1017.79
2018-08-16T07:33:34.023Z,1017.77
2018-08-16T07:34:33.874Z,1017.71
2018-08-16T07:35:34.081Z,1017.75
2018-08-16T07:36:33.938Z,1017.7
2018-08-16T07:37:33.930Z,1017.72
2018-08-16T07:38:34.054Z,1017.75
2018-08-16T07:39:33.977Z,1017.76
2018-08-16T07:40:33.863Z,1017.74
2018-08-16T07:41:33.907Z,1017.75
2018-08-16T07:42:34.088Z,1017.75
2018-08-16T07:43:33.948Z,1017.76
2018-08-16T07:44:33.963Z,1017.79
2018-08-16T07:45:34.338Z,1017.78
2018-08-16T07:46:34.320Z,1017.8
2018-08-16T07:47:34.080Z,1017.8
2018-08-16T07:48:34.027Z,1017.79
2018-08-16T07:49:34.592Z,1017.77
2018-08-16T07:50:33.952Z,1017.8
2018-08-16T07:51:34.951Z,1017.82
2018-08-16T07:52:33.951Z,1017.77
2018-08-16T07:53:33.968Z,1017.79
2018-08-16T07:54:34.107Z,1017.77
2018-08-16T07:55:33.886Z,1017.79
2018-08-16T07:56:33.844Z,1017.81
2018-08-16T07:57:34.259Z,1017.8
2018-08-16T07:58:34.212Z,1017.8
2018-08-16T07:59:33.934Z,1017.81
2018-08-16T08:00:34.035Z,1017.81
2018-08-16T08:01:34.189Z,1017.78
2018-08-16T08:02:34.048Z,1017.8
2018-08-16T08:03:33.894Z,1017.76
2018-08-16T08:04:33.903Z,1017.78
2018-08-16T08:05:33.973Z,1017.76
2018-08-16T08:06:33.932Z,1017.76
2018-08-16T08:07:34.043Z,1017.81
2018-08-16T08:08:33.951Z,1017.81
2018-08-16T08:09:34.567Z,1017.77
2018-08-16T08:10:33.981Z,1017.75
2018-08-16T08:11:33.905Z,1017.75
2018-08-16T08:12:34.117Z,1017.76
2018-08-16T08:13:34.045Z,1017.77
2018-08-16T08:14:34.184Z,1017.74
2018-08-16T08:15:34.481Z,1017.73
2018-08-16T08:16:34.284Z,1017.7
2018-08-16T08:17:33.989Z,1017.72
2018-08-16T08:18:34.119Z,1017.7
2018-08-16T08:19:34.180Z,1017.69
2018-08-16T08:20:33.987Z,1017.68
2018-08-16T08:21:33.981Z,1017.69
2018-08-16T08:22:33.851Z,1017.67
2018-08-16T08:23:34.025Z,1017.64
2018-08-16T08:24:33.969Z,1017.67
2018-08-16T08:25:34.404Z,1017.67
2018-08-16T08:26:33.836Z,1017.68
2018-08-16T08:27:33.909Z,1017.68
2018-08-16T08:28:34.221Z,1017.63
2018-08-16T08:29:33.897Z,1017.65
2018-08-16T08:30:34.012Z,1017.64
2018-08-16T08:31:34.176Z,1017.64
2018-08-16T08:32:34.001Z,1017.65
2018-08-16T08:33:33.941Z,1017.64
2018-08-16T08:34:34.145Z,1017.63
2018-08-16T08:35:33.837Z,1017.59
2018-08-16T08:36:33.912Z,1017.59
2018-08-16T08:37:33.866Z,1017.57
2018-08-16T08:38:34.239Z,1017.58
2018-08-16T08:39:34.165Z,1017.6
2018-08-16T08:40:33.980Z,1017.59
2018-08-16T08:41:34.019Z,1017.59
2018-08-16T08:42:33.919Z,1017.53
2018-08-16T08:43:34.212Z,1017.52
2018-08-16T08:44:33.882Z,1017.53
2018-08-16T08:45:34.226Z,1017.53
2018-08-16T08:46:33.957Z,1017.48
2018-08-16T08:47:33.999Z,1017.51
2018-08-16T08:48:33.854Z,1017.46
2018-08-16T08:49:33.998Z,1017.5
2018-08-16T08:50:34.005Z,1017.52
2018-08-16T08:51:33.869Z,1017.48
2018-08-16T08:52:34.032Z,1017.46
2018-08-16T08:53:33.979Z,1017.45
2018-08-16T08:54:34.025Z,1017.46
2018-08-16T08:55:34.112Z,1017.5
2018-08-16T08:56:34.004Z,1017.46
2018-08-16T08:57:34.092Z,1017.48
2018-08-16T08:58:33.790Z,1017.42
2018-08-16T08:59:34.088Z,1017.43
2018-08-16T09:00:33.843Z,1017.44
2018-08-16T09:01:34.090Z,1017.4
2018-08-16T09:02:33.909Z,1017.4
2018-08-16T09:03:34.044Z,1017.44
2018-08-16T09:04:33.916Z,1017.43
2018-08-16T09:05:33.918Z,1017.42
2018-08-16T09:06:34.100Z,1017.43
2018-08-16T09:07:33.949Z,1017.39
2018-08-16T09:08:33.887Z,1017.41
2018-08-16T09:09:33.779Z,1017.39
2018-08-16T09:10:33.951Z,1017.44
2018-08-16T09:11:33.797Z,1017.41
2018-08-16T09:12:34.193Z,1017.36
2018-08-16T09:13:34.124Z,1017.37
2018-08-16T09:14:34.114Z,1017.36
2018-08-16T09:15:34.030Z,1017.34
2018-08-16T09:16:34.139Z,1017.33
2018-08-16T09:17:34.072Z,1017.32
2018-08-16T09:18:33.946Z,1017.26
2018-08-16T09:19:33.991Z,1017.28
2018-08-16T09:20:33.782Z,1017.28
2018-08-16T09:21:34.066Z,1017.31
2018-08-16T09:22:33.862Z,1017.26
2018-08-16T09:23:33.884Z,1017.3
2018-08-16T09:24:34.153Z,1017.26
2018-08-16T09:25:34.022Z,1017.26
2018-08-16T09:26:34.080Z,1017.25
2018-08-16T09:27:34.071Z,1017.23
2018-08-16T09:28:34.202Z,1017.2
2018-08-16T09:29:33.982Z,1017.21
2018-08-16T09:30:35.645Z,1017.2
2018-08-16T09:31:34.116Z,1017.13
2018-08-16T09:32:34.048Z,1017.15
2018-08-16T09:33:33.905Z,1017.14
2018-08-16T09:34:34.007Z,1017.11
2018-08-16T09:35:34.049Z,1017.05
2018-08-16T09:36:33.947Z,1017.04
2018-08-16T09:37:33.959Z,1017.02
2018-08-16T09:38:33.804Z,1017.01
2018-08-16T09:39:34.900Z,1016.96
2018-08-16T09:40:34.125Z,1016.98
2018-08-16T09:41:34.066Z,1016.99
2018-08-16T09:42:34.203Z,1016.96
2018-08-16T09:43:33.915Z,1016.96
2018-08-16T09:44:34.166Z,1016.94
2018-08-16T09:45:34.113Z,1016.93
2018-08-16T09:46:34.132Z,1016.92
2018-08-16T09:47:33.896Z,1016.93
2018-08-16T09:48:34.149Z,1016.95
2018-08-16T09:49:33.974Z,1016.91
2018-08-16T09:50:33.783Z,1016.91
2018-08-16T09:51:34.334Z,1016.93
2018-08-16T09:52:34.012Z,1016.88
2018-08-16T09:53:33.947Z,1016.86
2018-08-16T09:54:33.964Z,1016.87
2018-08-16T09:55:34.112Z,1016.85
2018-08-16T09:56:33.982Z,1016.88
2018-08-16T09:57:34.080Z,1016.85
2018-08-16T09:58:33.868Z,1016.85
2018-08-16T09:59:34.035Z,1016.82
2018-08-16T10:00:33.998Z,1016.81
2018-08-16T10:01:33.938Z,1016.81
2018-08-16T10:02:34.087Z,1016.83
2018-08-16T10:03:34.033Z,1016.84
2018-08-16T10:04:34.030Z,1016.82
2018-08-16T10:05:33.853Z,1016.86
2018-08-16T10:06:33.933Z,1016.87
2018-08-16T10:07:34.120Z,1016.86
2018-08-16T10:08:33.924Z,1016.9
2018-08-16T10:09:34.160Z,1016.84
2018-08-16T10:10:34.149Z,1016.83
2018-08-16T10:11:33.994Z,1016.85
2018-08-16T10:12:34.072Z,1016.84
2018-08-16T10:13:34.336Z,1016.82
2018-08-16T10:14:33.870Z,1016.78
2018-08-16T10:15:34.034Z,1016.78
2018-08-16T10:16:34.078Z,1016.77
2018-08-16T10:17:34.058Z,1016.76
2018-08-16T10:18:33.879Z,1016.72
2018-08-16T10:19:33.943Z,1016.7
2018-08-16T10:20:34.154Z,1016.71
2018-08-16T10:21:34.081Z,1016.68
2018-08-16T10:22:34.118Z,1016.66
2018-08-16T10:23:33.872Z,1016.63
2018-08-16T10:24:34.027Z,1016.68
2018-08-16T10:25:34.607Z,1016.66
2018-08-16T10:26:33.974Z,1016.66
2018-08-16T10:27:34.006Z,1016.64
2018-08-16T10:28:34.135Z,1016.63
2018-08-16T10:29:34.107Z,1016.6
2018-08-16T10:30:34.161Z,1016.62
2018-08-16T10:31:34.022Z,1016.62
2018-08-16T10:32:33.724Z,1016.61
2018-08-16T10:33:34.103Z,1016.6
2018-08-16T10:34:34.121Z,1016.59
2018-08-16T10:35:34.027Z,1016.59
2018-08-16T10:36:33.921Z,1016.57
2018-08-16T10:37:34.145Z,1016.57
2018-08-16T10:38:34.022Z,1016.6
2018-08-16T10:39:33.959Z,1016.58
2018-08-16T10:40:34.004Z,1016.59
2018-08-16T10:41:33.951Z,1016.53
2018-08-16T10:42:34.052Z,1016.55
2018-08-16T10:43:34.069Z,1016.51
2018-08-16T10:44:34.202Z,1016.5
2018-08-16T10:45:33.898Z,1016.48
2018-08-16T10:46:34.043Z,1016.5
2018-08-16T10:47:34.127Z,1016.45
2018-08-16T10:48:34.018Z,1016.42
2018-08-16T10:49:34.054Z,1016.47
2018-08-16T10:50:33.870Z,1016.44
2018-08-16T10:51:33.853Z,1016.41
2018-08-16T10:52:33.943Z,1016.43
2018-08-16T10:53:33.825Z,1016.42
2018-08-16T10:54:33.867Z,1016.43
2018-08-16T10:55:34.008Z,1016.42
2018-08-16T10:56:34.057Z,1016.35
2018-08-16T10:57:34.096Z,1016.35
2018-08-16T10:58:34.137Z,1016.38
2018-08-16T10:59:35.189Z,1016.34
2018-08-16T11:00:33.943Z,1016.31
2018-08-16T11:01:33.950Z,1016.31
2018-08-16T11:02:33.991Z,1016.29
2018-08-16T11:03:33.961Z,1016.26
2018-08-16T11:04:34.125Z,1016.28
2018-08-16T11:05:34.038Z,1016.28
2018-08-16T11:06:33.781Z,1016.25
2018-08-16T11:07:34.054Z,1016.18
2018-08-16T11:08:33.830Z,1016.21
2018-08-16T11:09:33.977Z,1016.17
2018-08-16T11:10:33.785Z,1016.17
2018-08-16T11:11:33.970Z,1016.16
2018-08-16T11:12:33.835Z,1016.2
2018-08-16T11:13:33.855Z,1016.22
2018-08-16T11:14:34.103Z,1016.18
2018-08-16T11:15:33.956Z,1016.15
2018-08-16T11:16:33.800Z,1016.07
2018-08-16T11:17:33.896Z,1016.08
2018-08-16T11:18:33.858Z,1016.03
2018-08-16T11:19:33.960Z,1016.03
2018-08-16T11:20:34.013Z,1016.05
2018-08-16T11:21:33.917Z,1016.05
2018-08-16T11:22:34.120Z,1016
2018-08-16T11:23:34.264Z,1016.03
2018-08-16T11:24:33.909Z,1016.01
2018-08-16T11:25:33.938Z,1015.99
2018-08-16T11:26:33.946Z,1016.01
2018-08-16T11:27:33.877Z,1016.02
2018-08-16T11:28:33.979Z,1016.01
2018-08-16T11:29:33.926Z,1015.98
2018-08-16T11:30:33.908Z,1015.98
2018-08-16T11:31:33.924Z,1015.95
2018-08-16T11:32:33.858Z,1015.98
2018-08-16T11:33:33.908Z,1015.96
2018-08-16T11:34:33.788Z,1015.96
2018-08-16T11:35:33.798Z,1015.95
2018-08-16T11:36:33.823Z,1015.92
2018-08-16T11:37:33.970Z,1015.91
2018-08-16T11:38:33.828Z,1015.92
2018-08-16T11:39:33.955Z,1015.9
2018-08-16T11:40:33.973Z,1015.88
2018-08-16T11:41:33.961Z,1015.87
2018-08-16T11:42:33.965Z,1015.86
2018-08-16T11:43:34.016Z,1015.83
2018-08-16T11:44:33.736Z,1015.83
2018-08-16T11:45:34.041Z,1015.79
2018-08-16T11:46:34.277Z,1015.8
2018-08-16T11:47:34.101Z,1015.77
2018-08-16T11:48:33.837Z,1015.76
2018-08-16T11:49:34.006Z,1015.73
2018-08-16T11:50:34.115Z,1015.71
2018-08-16T11:51:34.017Z,1015.69
2018-08-16T11:52:34.071Z,1015.66
2018-08-16T11:53:33.886Z,1015.66
2018-08-16T11:54:34.147Z,1015.68
2018-08-16T11:55:33.875Z,1015.63
2018-08-16T11:56:34.082Z,1015.63
2018-08-16T11:57:33.893Z,1015.64
2018-08-16T11:58:34.125Z,1015.62
2018-08-16T11:59:34.083Z,1015.6
2018-08-16T12:00:34.298Z,1015.57
2018-08-16T12:01:33.884Z,1015.61
2018-08-16T12:02:33.868Z,1015.59
2018-08-16T12:03:33.856Z,1015.58
2018-08-16T12:04:33.814Z,1015.6
2018-08-16T12:05:34.001Z,1015.6
2018-08-16T12:06:33.828Z,1015.58
2018-08-16T12:07:33.904Z,1015.63
2018-08-16T12:08:33.965Z,1015.58